Taurus — WDF3127 — position and weather

sailwx.info

Track history (hours):
 
Tides and Currents Weather Stations Pressure Air Temp Water Temp Dewpoint Dewpoint Depression Visibility Wind Speed Wind Dir Waves Ship Positions

Taurus

Owner: San Francisco Bay Area Water Emergency Transportation Authority, San Francisco, CA. More information available from US FCC via Universal Licensing System and Coast Guard Vessel Documentation Center.

Last reported at 2015-Feb-27 04:34 UTC. Time now 2015-Feb-27 07:34 UTC.
Position N 37°49' W 122°25'.

Length 35 m.

Type: Passenger vessel. MMSI: 367436230.

Date/timePositionNaut miles runAvg speedWind from/ knotsBaromVisibWave heightAir tempDewpointWater temp
2015-Feb-27 04:34N 37°49' W 122°25'2 1.9
2015-Feb-27 03:34N 37°48' W 122°23'1 0.9
2015-Feb-27 02:33N 37°48' W 122°21'2 2.2
2015-Feb-27 01:33N 37°48' W 122°19'5 4.9
2015-Feb-27 00:34N 37°49' W 122°25'0 0.0
2015-Feb-26 23:33N 37°49' W 122°25'0 0.0
2015-Feb-26 22:33N 37°49' W 122°25'0 0.0
2015-Feb-26 21:34N 37°49' W 122°25'0 0.0
2015-Feb-26 20:33N 37°49' W 122°25'0 0.0
2015-Feb-26 19:33N 37°49' W 122°25'0 0.0
2015-Feb-26 18:33N 37°49' W 122°25'0 0.0
2015-Feb-26 17:33N 37°49' W 122°25'6 6.2
2015-Feb-26 16:33N 37°48' W 122°17'0 0.2
2015-Feb-26 15:33N 37°48' W 122°17'1 0.5
2015-Feb-26 14:33N 37°48' W 122°17'6 5.8
2015-Feb-26 13:34N 37°49' W 122°25'0 0.0
2015-Feb-26 04:33N 37°49' W 122°25'3 3.0
2015-Feb-26 03:34N 37°48' W 122°21'0 0.1
2015-Feb-26 02:33N 37°48' W 122°21'3 2.7
2015-Feb-26 01:33N 37°47' W 122°18'6 5.6
2015-Feb-26 00:34N 37°49' W 122°25'0 0.0
2015-Feb-25 23:33N 37°49' W 122°25'0 0.0
2015-Feb-25 22:34N 37°49' W 122°25'6 6.3
2015-Feb-25 21:33N 37°48' W 122°17'6 6.4
2015-Feb-25 20:33N 37°49' W 122°25'0 0.2
2015-Feb-25 19:34N 37°49' W 122°25'1 1.5
2015-Feb-25 18:33N 37°48' W 122°23'1 1.4
2015-Feb-25 17:34N 37°49' W 122°25'6 6.4
2015-Feb-25 16:33N 37°48' W 122°17'0 0.0
2015-Feb-25 15:33N 37°48' W 122°17'0 0.2
2015-Feb-25 14:33N 37°48' W 122°17'6 6.1
2015-Feb-25 13:33N 37°49' W 122°25'0 0.0
2015-Feb-25 04:15N 37°49' W 122°25'1 1.7
2015-Feb-25 03:34N 37°48' W 122°24'0 0.2
2015-Feb-25 02:33N 37°48' W 122°24'1 1.0
2015-Feb-25 01:33N 37°49' W 122°24'0 0.4
2015-Feb-25 00:33N 37°49' W 122°24'1 0.8
2015-Feb-24 23:33N 37°49' W 122°25'6 6.4
2015-Feb-24 22:34N 37°48' W 122°17'6 6.4
2015-Feb-24 21:33N 37°49' W 122°25'0 0.0
2015-Feb-24 20:33N 37°49' W 122°25'1 0.8
2015-Feb-24 19:34N 37°48' W 122°24'1 0.9
2015-Feb-24 18:34N 37°48' W 122°23'2 1.6
2015-Feb-24 17:33N 37°49' W 122°25'6 6.0
2015-Feb-24 16:34N 37°48' W 122°17'0 0.4
2015-Feb-24 15:33N 37°48' W 122°17'0 0.2
2015-Feb-24 14:33N 37°48' W 122°17'6 6.1
2015-Feb-24 13:33N 37°49' W 122°25'0 0.0
2015-Feb-24 04:25N 37°49' W 122°25'1 1.4
2015-Feb-24 03:33N 37°48' W 122°24'0 0.1
2015-Feb-24 02:33N 37°48' W 122°24'2 1.9
2015-Feb-24 01:33N 37°50' W 122°24'1 0.6
2015-Feb-24 00:34N 37°49' W 122°24'1 1.1
2015-Feb-23 23:33N 37°49' W 122°25'6 5.7
2015-Feb-23 22:33N 37°47' W 122°18'6 5.6
2015-Feb-23 21:33N 37°49' W 122°25'0 0.0
2015-Feb-23 20:33N 37°49' W 122°25'0 0.0
2015-Feb-23 19:33N 37°49' W 122°25'0 0.0
2015-Feb-23 18:33N 37°49' W 122°25'0 0.0
2015-Feb-23 17:33N 37°49' W 122°25'6 6.4
2015-Feb-23 16:33N 37°48' W 122°17'0 0.0
2015-Feb-23 15:33N 37°48' W 122°17'0 0.1
2015-Feb-23 14:34N 37°48' W 122°17'6 6.2
2015-Feb-23 13:34N 37°49' W 122°25'  
2015-Feb-21 04:19N 37°49' W 122°25'1 1.6
2015-Feb-21 03:33N 37°48' W 122°24'0 0.1
2015-Feb-21 02:33N 37°48' W 122°24'2 2.0
2015-Feb-21 01:33N 37°50' W 122°25'1 1.5
2015-Feb-21 00:34N 37°48' W 122°24'1 0.9
2015-Feb-20 23:33N 37°49' W 122°25'6 6.2
2015-Feb-20 22:33N 37°48' W 122°17'6 6.2
2015-Feb-20 21:34N 37°49' W 122°25'0 0.0
2015-Feb-20 14:33N 37°49' W 122°25'0 0.0
2015-Feb-20 04:24N 37°49' W 122°25'1 1.4
2015-Feb-20 03:34N 37°48' W 122°24'0 0.1
2015-Feb-20 02:34N 37°48' W 122°23'1 1.4
2015-Feb-20 01:33N 37°49' W 122°24'1 0.7
2015-Feb-20 00:33N 37°50' W 122°25'1 1.2
2015-Feb-19 23:33N 37°49' W 122°25'6 5.7
2015-Feb-19 22:33N 37°48' W 122°18'6 5.7
2015-Feb-19 21:33N 37°49' W 122°25'0 0.0
2015-Feb-19 20:34N 37°49' W 122°25'0 0.0
2015-Feb-19 19:33N 37°49' W 122°25'0 0.0
2015-Feb-19 18:33N 37°49' W 122°25'0 0.0
2015-Feb-19 17:33N 37°49' W 122°25'6 6.4
2015-Feb-19 16:33N 37°48' W 122°17'0 0.0
2015-Feb-19 15:33N 37°48' W 122°17'0 0.2
2015-Feb-19 14:33N 37°48' W 122°17'6 6.1
2015-Feb-19 13:33N 37°49' W 122°25'0 0.0
2015-Feb-19 04:22N 37°49' W 122°25'1 1.5
2015-Feb-19 03:33N 37°48' W 122°24'0 0.1
2015-Feb-19 02:33N 37°48' W 122°24'2 1.7
2015-Feb-19 01:34N 37°49' W 122°25'2 1.7
2015-Feb-19 00:33N 37°48' W 122°23'1 1.2
2015-Feb-18 23:33N 37°49' W 122°25'6 5.8
2015-Feb-18 22:33N 37°48' W 122°18'6 5.7
2015-Feb-18 21:33N 37°49' W 122°25'3 3.4
2015-Feb-18 20:34N 37°48' W 122°21'2 2.5
2015-Feb-18 19:33N 37°47' W 122°17'1 0.7
2015-Feb-18 18:34N 37°48' W 122°18'5 5.2
2015-Feb-18 17:33N 37°49' W 122°25'6 5.8
2015-Feb-18 16:34N 37°48' W 122°18'1 0.6
2015-Feb-18 15:33N 37°48' W 122°17'0 0.2
2015-Feb-18 14:33N 37°48' W 122°17'6 6.1
2015-Feb-18 13:33N 37°49' W 122°25'0 0.0
2015-Feb-18 04:15N 37°49' W 122°25'1 2.0
2015-Feb-18 03:34N 37°48' W 122°24'0 0.1
2015-Feb-18 02:34N 37°48' W 122°24'2 1.7
2015-Feb-18 01:34N 37°49' W 122°25'0 0.1
2015-Feb-18 00:34N 37°50' W 122°25'1 1.0
2015-Feb-17 23:33N 37°49' W 122°25'6 6.4
2015-Feb-17 22:34N 37°48' W 122°17'5 1.8
2015-Feb-17 19:33N 37°48' W 122°24'1 0.7
2015-Feb-17 17:34N 37°49' W 122°25'6 6.4
2015-Feb-17 16:33N 37°48' W 122°17'0 0.0
2015-Feb-17 15:33N 37°48' W 122°17'0 0.2
2015-Feb-17 14:33N 37°48' W 122°17'6 6.2
2015-Feb-17 13:33N 37°49' W 122°25'  
Track history (hours):
 
Tides and Currents Weather Stations Pressure Air Temp Water Temp Dewpoint Dewpoint Depression Visibility Wind Speed Wind Dir Waves Ship Positions

Taurus

Owner: San Francisco Bay Area Water Emergency Transportation Authority, San Francisco, CA. More information available from US FCC via Universal Licensing System and Coast Guard Vessel Documentation Center.

Last reported at 2015-Feb-27 04:34 UTC. Time now 2015-Feb-27 07:34 UTC.
Position N 37°49' W 122°25'.

Length 35 m.

Type: Passenger vessel. MMSI: 367436230.

Date/timePositionNaut miles runAvg speedWind from/ knotsBaromVisibWave heightAir tempDewpointWater temp
2015-Feb-27 04:34N 37°49' W 122°25'2 1.9
2015-Feb-27 03:34N 37°48' W 122°23'1 0.9
2015-Feb-27 02:33N 37°48' W 122°21'2 2.2
2015-Feb-27 01:33N 37°48' W 122°19'5 4.9
2015-Feb-27 00:34N 37°49' W 122°25'0 0.0
2015-Feb-26 23:33N 37°49' W 122°25'0 0.0
2015-Feb-26 22:33N 37°49' W 122°25'0 0.0
2015-Feb-26 21:34N 37°49' W 122°25'0 0.0
2015-Feb-26 20:33N 37°49' W 122°25'0 0.0
2015-Feb-26 19:33N 37°49' W 122°25'0 0.0
2015-Feb-26 18:33N 37°49' W 122°25'0 0.0
2015-Feb-26 17:33N 37°49' W 122°25'6 6.2
2015-Feb-26 16:33N 37°48' W 122°17'0 0.2
2015-Feb-26 15:33N 37°48' W 122°17'1 0.5
2015-Feb-26 14:33N 37°48' W 122°17'6 5.8
2015-Feb-26 13:34N 37°49' W 122°25'0 0.0
2015-Feb-26 04:33N 37°49' W 122°25'3 3.0
2015-Feb-26 03:34N 37°48' W 122°21'0 0.1
2015-Feb-26 02:33N 37°48' W 122°21'3 2.7
2015-Feb-26 01:33N 37°47' W 122°18'6 5.6
2015-Feb-26 00:34N 37°49' W 122°25'0 0.0
2015-Feb-25 23:33N 37°49' W 122°25'0 0.0
2015-Feb-25 22:34N 37°49' W 122°25'6 6.3
2015-Feb-25 21:33N 37°48' W 122°17'6 6.4
2015-Feb-25 20:33N 37°49' W 122°25'0 0.2
2015-Feb-25 19:34N 37°49' W 122°25'1 1.5
2015-Feb-25 18:33N 37°48' W 122°23'1 1.4
2015-Feb-25 17:34N 37°49' W 122°25'6 6.4
2015-Feb-25 16:33N 37°48' W 122°17'0 0.0
2015-Feb-25 15:33N 37°48' W 122°17'0 0.2
2015-Feb-25 14:33N 37°48' W 122°17'6 6.1
2015-Feb-25 13:33N 37°49' W 122°25'0 0.0
2015-Feb-25 04:15N 37°49' W 122°25'1 1.7
2015-Feb-25 03:34N 37°48' W 122°24'0 0.2
2015-Feb-25 02:33N 37°48' W 122°24'1 1.0
2015-Feb-25 01:33N 37°49' W 122°24'0 0.4
2015-Feb-25 00:33N 37°49' W 122°24'1 0.8
2015-Feb-24 23:33N 37°49' W 122°25'6 6.4
2015-Feb-24 22:34N 37°48' W 122°17'6 6.4
2015-Feb-24 21:33N 37°49' W 122°25'0 0.0
2015-Feb-24 20:33N 37°49' W 122°25'1 0.8
2015-Feb-24 19:34N 37°48' W 122°24'1 0.9
2015-Feb-24 18:34N 37°48' W 122°23'2 1.6
2015-Feb-24 17:33N 37°49' W 122°25'6 6.0
2015-Feb-24 16:34N 37°48' W 122°17'0 0.4
2015-Feb-24 15:33N 37°48' W 122°17'0 0.2
2015-Feb-24 14:33N 37°48' W 122°17'6 6.1
2015-Feb-24 13:33N 37°49' W 122°25'0 0.0
2015-Feb-24 04:25N 37°49' W 122°25'1 1.4
2015-Feb-24 03:33N 37°48' W 122°24'0 0.1
2015-Feb-24 02:33N 37°48' W 122°24'2 1.9
2015-Feb-24 01:33N 37°50' W 122°24'1 0.6
2015-Feb-24 00:34N 37°49' W 122°24'1 1.1
2015-Feb-23 23:33N 37°49' W 122°25'6 5.7
2015-Feb-23 22:33N 37°47' W 122°18'6 5.6
2015-Feb-23 21:33N 37°49' W 122°25'0 0.0
2015-Feb-23 20:33N 37°49' W 122°25'0 0.0
2015-Feb-23 19:33N 37°49' W 122°25'0 0.0
2015-Feb-23 18:33N 37°49' W 122°25'0 0.0
2015-Feb-23 17:33N 37°49' W 122°25'6 6.4
2015-Feb-23 16:33N 37°48' W 122°17'0 0.0
2015-Feb-23 15:33N 37°48' W 122°17'0 0.1
2015-Feb-23 14:34N 37°48' W 122°17'6 6.2
2015-Feb-23 13:34N 37°49' W 122°25'  
2015-Feb-21 04:19N 37°49' W 122°25'1 1.6
2015-Feb-21 03:33N 37°48' W 122°24'0 0.1
2015-Feb-21 02:33N 37°48' W 122°24'2 2.0
2015-Feb-21 01:33N 37°50' W 122°25'1 1.5
2015-Feb-21 00:34N 37°48' W 122°24'1 0.9
2015-Feb-20 23:33N 37°49' W 122°25'6 6.2
2015-Feb-20 22:33N 37°48' W 122°17'6 6.2
2015-Feb-20 21:34N 37°49' W 122°25'0 0.0
2015-Feb-20 14:33N 37°49' W 122°25'0 0.0
2015-Feb-20 04:24N 37°49' W 122°25'1 1.4
2015-Feb-20 03:34N 37°48' W 122°24'0 0.1
2015-Feb-20 02:34N 37°48' W 122°23'1 1.4
2015-Feb-20 01:33N 37°49' W 122°24'1 0.7
2015-Feb-20 00:33N 37°50' W 122°25'1 1.2
2015-Feb-19 23:33N 37°49' W 122°25'6 5.7
2015-Feb-19 22:33N 37°48' W 122°18'6 5.7
2015-Feb-19 21:33N 37°49' W 122°25'0 0.0
2015-Feb-19 20:34N 37°49' W 122°25'0 0.0
2015-Feb-19 19:33N 37°49' W 122°25'0 0.0
2015-Feb-19 18:33N 37°49' W 122°25'0 0.0
2015-Feb-19 17:33N 37°49' W 122°25'6 6.4
2015-Feb-19 16:33N 37°48' W 122°17'0 0.0
2015-Feb-19 15:33N 37°48' W 122°17'0 0.2
2015-Feb-19 14:33N 37°48' W 122°17'6 6.1
2015-Feb-19 13:33N 37°49' W 122°25'0 0.0
2015-Feb-19 04:22N 37°49' W 122°25'1 1.5
2015-Feb-19 03:33N 37°48' W 122°24'0 0.1
2015-Feb-19 02:33N 37°48' W 122°24'2 1.7
2015-Feb-19 01:34N 37°49' W 122°25'2 1.7
2015-Feb-19 00:33N 37°48' W 122°23'1 1.2
2015-Feb-18 23:33N 37°49' W 122°25'6 5.8
2015-Feb-18 22:33N 37°48' W 122°18'6 5.7
2015-Feb-18 21:33N 37°49' W 122°25'3 3.4
2015-Feb-18 20:34N 37°48' W 122°21'2 2.5
2015-Feb-18 19:33N 37°47' W 122°17'1 0.7
2015-Feb-18 18:34N 37°48' W 122°18'5 5.2
2015-Feb-18 17:33N 37°49' W 122°25'6 5.8
2015-Feb-18 16:34N 37°48' W 122°18'1 0.6
2015-Feb-18 15:33N 37°48' W 122°17'0 0.2
2015-Feb-18 14:33N 37°48' W 122°17'6 6.1
2015-Feb-18 13:33N 37°49' W 122°25'0 0.0
2015-Feb-18 04:15N 37°49' W 122°25'1 2.0
2015-Feb-18 03:34N 37°48' W 122°24'0 0.1
2015-Feb-18 02:34N 37°48' W 122°24'2 1.7
2015-Feb-18 01:34N 37°49' W 122°25'0 0.1
2015-Feb-18 00:34N 37°50' W 122°25'1 1.0
2015-Feb-17 23:33N 37°49' W 122°25'6 6.4
2015-Feb-17 22:34N 37°48' W 122°17'5 1.8
2015-Feb-17 19:33N 37°48' W 122°24'1 0.7
2015-Feb-17 17:34N 37°49' W 122°25'6 6.4
2015-Feb-17 16:33N 37°48' W 122°17'0 0.0
2015-Feb-17 15:33N 37°48' W 122°17'0 0.2
2015-Feb-17 14:33N 37°48' W 122°17'6 6.2
2015-Feb-17 13:33N 37°49' W 122°25'  

Dump ship's entire track history